sensor_id;sensor_type;location;lat;lon;timestamp;temperature;humidity
32614;DHT22;19031;51.400;6.770;2023-06-05T00:01:26;16.00;99.90
32614;DHT22;19031;51.400;6.770;2023-06-05T00:03:51;16.00;99.90
32614;DHT22;19031;51.400;6.770;2023-06-05T00:06:18;15.90;99.90
32614;DHT22;19031;51.400;6.770;2023-06-05T00:08:44;15.90;99.90
32614;DHT22;19031;51.400;6.770;2023-06-05T00:11:10;15.80;99.90
32614;DHT22;19031;51.400;6.770;2023-06-05T00:13:35;15.80;99.90
32614;DHT22;19031;51.400;6.770;2023-06-05T00:16:01;15.80;99.90
32614;DHT22;19031;51.400;6.770;2023-06-05T00:18:29;15.70;99.90
32614;DHT22;19031;51.400;6.770;2023-06-05T00:20:55;15.60;99.90
32614;DHT22;19031;51.400;6.770;2023-06-05T00:23:20;15.60;99.90
32614;DHT22;19031;51.400;6.770;2023-06-05T00:25:46;15.60;99.90
32614;DHT22;19031;51.400;6.770;2023-06-05T00:28:11;15.50;99.90
32614;DHT22;19031;51.400;6.770;2023-06-05T00:30:37;15.50;99.90
32614;DHT22;19031;51.400;6.770;2023-06-05T00:33:04;15.50;99.90
32614;DHT22;19031;51.400;6.770;2023-06-05T00:35:30;15.40;99.90
32614;DHT22;19031;51.400;6.770;2023-06-05T00:37:55;15.40;99.90
32614;DHT22;19031;51.400;6.770;2023-06-05T00:40:21;15.30;99.90
32614;DHT22;19031;51.400;6.770;2023-06-05T00:42:47;15.40;99.90
32614;DHT22;19031;51.400;6.770;2023-06-05T00:45:12;15.30;99.90
32614;DHT22;19031;51.400;6.770;2023-06-05T00:47:38;15.20;99.90
32614;DHT22;19031;51.400;6.770;2023-06-05T00:50:06;15.20;99.90
32614;DHT22;19031;51.400;6.770;2023-06-05T00:52:33;15.20;99.90
32614;DHT22;19031;51.400;6.770;2023-06-05T00:55:00;15.10;99.90
32614;DHT22;19031;51.400;6.770;2023-06-05T00:57:27;15.20;99.90
32614;DHT22;19031;51.400;6.770;2023-06-05T00:59:53;15.10;99.90
32614;DHT22;19031;51.400;6.770;2023-06-05T01:02:19;15.00;99.90
32614;DHT22;19031;51.400;6.770;2023-06-05T01:04:45;15.00;99.90
32614;DHT22;19031;51.400;6.770;2023-06-05T01:07:13;14.90;99.90
32614;DHT22;19031;51.400;6.770;2023-06-05T01:09:40;14.90;99.90
32614;DHT22;19031;51.400;6.770;2023-06-05T01:12:28;14.80;99.90
32614;DHT22;19031;51.400;6.770;2023-06-05T01:14:56;14.80;99.90
32614;DHT22;19031;51.400;6.770;2023-06-05T01:17:26;14.70;99.90
32614;DHT22;19031;51.400;6.770;2023-06-05T01:19:54;14.70;99.90
32614;DHT22;19031;51.400;6.770;2023-06-05T01:22:20;14.70;99.90
32614;DHT22;19031;51.400;6.770;2023-06-05T01:24:46;14.60;99.90
32614;DHT22;19031;51.400;6.770;2023-06-05T01:27:23;14.60;99.90
32614;DHT22;19031;51.400;6.770;2023-06-05T01:32:56;14.60;99.90
32614;DHT22;19031;51.400;6.770;2023-06-05T01:35:23;14.50;99.90
32614;DHT22;19031;51.400;6.770;2023-06-05T01:37:54;14.40;99.90
32614;DHT22;19031;51.400;6.770;2023-06-05T01:40:23;14.40;99.90
32614;DHT22;19031;51.400;6.770;2023-06-05T01:42:50;14.40;99.90
32614;DHT22;19031;51.400;6.770;2023-06-05T01:45:18;14.30;99.90
32614;DHT22;19031;51.400;6.770;2023-06-05T01:47:44;14.20;99.90
32614;DHT22;19031;51.400;6.770;2023-06-05T01:50:13;14.20;99.90
32614;DHT22;19031;51.400;6.770;2023-06-05T01:52:40;14.20;99.90
32614;DHT22;19031;51.400;6.770;2023-06-05T01:55:08;14.10;99.90
32614;DHT22;19031;51.400;6.770;2023-06-05T01:57:40;14.10;99.90
32614;DHT22;19031;51.400;6.770;2023-06-05T02:00:07;14.10;99.90
32614;DHT22;19031;51.400;6.770;2023-06-05T02:02:37;14.00;99.90
32614;DHT22;19031;51.400;6.770;2023-06-05T02:05:02;14.00;99.90
32614;DHT22;19031;51.400;6.770;2023-06-05T02:07:28;13.90;99.90
32614;DHT22;19031;51.400;6.770;2023-06-05T02:09:53;13.90;99.90
32614;DHT22;19031;51.400;6.770;2023-06-05T02:12:19;13.90;99.90
32614;DHT22;19031;51.400;6.770;2023-06-05T02:14:45;13.80;99.90
32614;DHT22;19031;51.400;6.770;2023-06-05T02:17:11;13.80;99.90
32614;DHT22;19031;51.400;6.770;2023-06-05T02:19:39;13.80;99.90
32614;DHT22;19031;51.400;6.770;2023-06-05T02:22:04;13.70;99.90
32614;DHT22;19031;51.400;6.770;2023-06-05T02:24:30;13.70;99.90
32614;DHT22;19031;51.400;6.770;2023-06-05T02:26:56;13.70;99.90
32614;DHT22;19031;51.400;6.770;2023-06-05T02:29:22;13.60;99.90
32614;DHT22;19031;51.400;6.770;2023-06-05T02:31:48;13.60;99.90
32614;DHT22;19031;51.400;6.770;2023-06-05T02:34:14;13.60;99.90
32614;DHT22;19031;51.400;6.770;2023-06-05T02:36:42;13.50;99.90
32614;DHT22;19031;51.400;6.770;2023-06-05T02:39:11;13.50;99.90
32614;DHT22;19031;51.400;6.770;2023-06-05T02:41:37;13.50;99.90
32614;DHT22;19031;51.400;6.770;2023-06-05T02:44:02;13.30;99.90
32614;DHT22;19031;51.400;6.770;2023-06-05T02:46:28;13.40;99.90
32614;DHT22;19031;51.400;6.770;2023-06-05T02:48:53;13.30;99.90
32614;DHT22;19031;51.400;6.770;2023-06-05T02:51:19;13.40;99.90
32614;DHT22;19031;51.400;6.770;2023-06-05T02:53:45;13.30;99.90
32614;DHT22;19031;51.400;6.770;2023-06-05T02:56:11;13.20;99.90
32614;DHT22;19031;51.400;6.770;2023-06-05T02:58:38;13.20;99.90
32614;DHT22;19031;51.400;6.770;2023-06-05T03:01:05;13.10;99.90
32614;DHT22;19031;51.400;6.770;2023-06-05T03:03:32;13.20;99.90
32614;DHT22;19031;51.400;6.770;2023-06-05T03:06:01;13.10;99.90
32614;DHT22;19031;51.400;6.770;2023-06-05T03:08:31;13.10;99.90
32614;DHT22;19031;51.400;6.770;2023-06-05T03:10:58;13.10;99.90
32614;DHT22;19031;51.400;6.770;2023-06-05T03:13:24;13.00;99.90
32614;DHT22;19031;51.400;6.770;2023-06-05T03:15:50;13.00;99.90
32614;DHT22;19031;51.400;6.770;2023-06-05T03:18:19;13.00;99.90
32614;DHT22;19031;51.400;6.770;2023-06-05T03:20:47;12.90;99.90
32614;DHT22;19031;51.400;6.770;2023-06-05T03:23:13;12.80;99.90
32614;DHT22;19031;51.400;6.770;2023-06-05T03:25:38;12.90;99.90
32614;DHT22;19031;51.400;6.770;2023-06-05T03:28:04;12.90;99.90
32614;DHT22;19031;51.400;6.770;2023-06-05T03:30:29;12.70;99.90
32614;DHT22;19031;51.400;6.770;2023-06-05T03:32:55;12.80;99.90
32614;DHT22;19031;51.400;6.770;2023-06-05T03:35:20;12.80;99.90
32614;DHT22;19031;51.400;6.770;2023-06-05T03:37:46;12.70;99.90
32614;DHT22;19031;51.400;6.770;2023-06-05T03:40:12;12.80;99.90
32614;DHT22;19031;51.400;6.770;2023-06-05T03:42:37;12.80;99.90
32614;DHT22;19031;51.400;6.770;2023-06-05T03:45:03;12.70;99.90
32614;DHT22;19031;51.400;6.770;2023-06-05T03:47:29;12.70;99.90
32614;DHT22;19031;51.400;6.770;2023-06-05T03:49:54;12.70;99.90
32614;DHT22;19031;51.400;6.770;2023-06-05T03:52:21;12.60;99.90
32614;DHT22;19031;51.400;6.770;2023-06-05T03:54:50;12.60;99.90
32614;DHT22;19031;51.400;6.770;2023-06-05T03:57:19;12.70;99.90
32614;DHT22;19031;51.400;6.770;2023-06-05T03:59:45;12.70;99.90
32614;DHT22;19031;51.400;6.770;2023-06-05T04:02:12;12.60;99.90
32614;DHT22;19031;51.400;6.770;2023-06-05T04:04:38;12.70;99.90
32614;DHT22;19031;51.400;6.770;2023-06-05T04:07:05;12.80;99.90
32614;DHT22;19031;51.400;6.770;2023-06-05T04:09:31;12.70;99.90
32614;DHT22;19031;51.400;6.770;2023-06-05T04:11:57;12.60;99.90
32614;DHT22;19031;51.400;6.770;2023-06-05T04:14:24;12.70;99.90
32614;DHT22;19031;51.400;6.770;2023-06-05T04:16:50;12.80;99.90
32614;DHT22;19031;51.400;6.770;2023-06-05T04:19:16;12.80;99.90
32614;DHT22;19031;51.400;6.770;2023-06-05T04:21:41;12.80;99.90
32614;DHT22;19031;51.400;6.770;2023-06-05T04:24:08;12.80;99.90
32614;DHT22;19031;51.400;6.770;2023-06-05T04:26:37;12.90;99.90
32614;DHT22;19031;51.400;6.770;2023-06-05T04:29:04;12.90;99.90
32614;DHT22;19031;51.400;6.770;2023-06-05T04:31:42;12.80;99.90
32614;DHT22;19031;51.400;6.770;2023-06-05T04:34:08;12.90;99.90
32614;DHT22;19031;51.400;6.770;2023-06-05T04:36:34;13.00;99.90
32614;DHT22;19031;51.400;6.770;2023-06-05T04:39:00;13.00;99.90
32614;DHT22;19031;51.400;6.770;2023-06-05T04:41:30;13.00;99.90
32614;DHT22;19031;51.400;6.770;2023-06-05T04:43:58;13.10;99.90
32614;DHT22;19031;51.400;6.770;2023-06-05T04:46:25;13.10;99.90
32614;DHT22;19031;51.400;6.770;2023-06-05T04:48:51;13.20;99.90
32614;DHT22;19031;51.400;6.770;2023-06-05T04:51:20;13.20;99.90
32614;DHT22;19031;51.400;6.770;2023-06-05T04:53:46;13.20;99.90
32614;DHT22;19031;51.400;6.770;2023-06-05T04:56:16;13.30;99.90
32614;DHT22;19031;51.400;6.770;2023-06-05T04:58:42;13.40;99.90
32614;DHT22;19031;51.400;6.770;2023-06-05T05:01:07;13.50;99.90
32614;DHT22;19031;51.400;6.770;2023-06-05T05:03:33;13.60;99.90
32614;DHT22;19031;51.400;6.770;2023-06-05T05:06:01;13.60;99.90
32614;DHT22;19031;51.400;6.770;2023-06-05T05:08:27;13.80;99.90
32614;DHT22;19031;51.400;6.770;2023-06-05T05:10:53;13.70;99.90
32614;DHT22;19031;51.400;6.770;2023-06-05T05:13:19;13.80;99.90
32614;DHT22;19031;51.400;6.770;2023-06-05T05:15:44;13.80;99.90
32614;DHT22;19031;51.400;6.770;2023-06-05T05:18:10;13.80;99.90
32614;DHT22;19031;51.400;6.770;2023-06-05T05:20:36;14.00;99.90
32614;DHT22;19031;51.400;6.770;2023-06-05T05:23:02;14.00;99.90
32614;DHT22;19031;51.400;6.770;2023-06-05T05:25:27;14.10;99.90
32614;DHT22;19031;51.400;6.770;2023-06-05T05:27:53;14.20;99.90
32614;DHT22;19031;51.400;6.770;2023-06-05T05:30:19;14.20;99.90
32614;DHT22;19031;51.400;6.770;2023-06-05T05:32:44;14.20;99.90
32614;DHT22;19031;51.400;6.770;2023-06-05T05:35:10;14.20;99.90
32614;DHT22;19031;51.400;6.770;2023-06-05T05:37:36;14.20;99.90
32614;DHT22;19031;51.400;6.770;2023-06-05T05:40:01;14.30;99.90
32614;DHT22;19031;51.400;6.770;2023-06-05T05:42:29;14.30;99.90
32614;DHT22;19031;51.400;6.770;2023-06-05T05:44:54;14.40;99.90
32614;DHT22;19031;51.400;6.770;2023-06-05T05:47:20;14.30;99.90
32614;DHT22;19031;51.400;6.770;2023-06-05T05:49:46;14.50;99.90
32614;DHT22;19031;51.400;6.770;2023-06-05T05:52:11;14.50;99.90
32614;DHT22;19031;51.400;6.770;2023-06-05T05:54:37;14.60;99.90
32614;DHT22;19031;51.400;6.770;2023-06-05T05:57:02;14.60;99.90
32614;DHT22;19031;51.400;6.770;2023-06-05T05:59:30;14.60;99.90
32614;DHT22;19031;51.400;6.770;2023-06-05T06:01:55;14.70;99.90
32614;DHT22;19031;51.400;6.770;2023-06-05T06:04:24;14.80;99.90
32614;DHT22;19031;51.400;6.770;2023-06-05T06:06:49;15.00;99.90
32614;DHT22;19031;51.400;6.770;2023-06-05T06:09:18;15.00;99.90
32614;DHT22;19031;51.400;6.770;2023-06-05T06:11:44;14.90;99.90
32614;DHT22;19031;51.400;6.770;2023-06-05T06:14:10;15.10;99.90
32614;DHT22;19031;51.400;6.770;2023-06-05T06:16:37;15.10;99.90
32614;DHT22;19031;51.400;6.770;2023-06-05T06:19:03;15.20;99.90
32614;DHT22;19031;51.400;6.770;2023-06-05T06:21:29;15.30;99.90
32614;DHT22;19031;51.400;6.770;2023-06-05T06:23:55;15.50;99.90
32614;DHT22;19031;51.400;6.770;2023-06-05T06:26:20;15.60;99.90
32614;DHT22;19031;51.400;6.770;2023-06-05T06:28:46;15.60;99.90
32614;DHT22;19031;51.400;6.770;2023-06-05T06:31:12;15.70;99.90
32614;DHT22;19031;51.400;6.770;2023-06-05T06:33:38;15.90;99.90
32614;DHT22;19031;51.400;6.770;2023-06-05T06:36:04;16.00;99.90
32614;DHT22;19031;51.400;6.770;2023-06-05T06:38:30;16.20;99.90
32614;DHT22;19031;51.400;6.770;2023-06-05T06:40:58;16.30;99.90
32614;DHT22;19031;51.400;6.770;2023-06-05T06:43:23;16.60;99.90
32614;DHT22;19031;51.400;6.770;2023-06-05T06:45:49;16.80;99.90
32614;DHT22;19031;51.400;6.770;2023-06-05T06:48:15;17.00;99.90
32614;DHT22;19031;51.400;6.770;2023-06-05T06:50:42;17.20;99.90
32614;DHT22;19031;51.400;6.770;2023-06-05T06:53:08;17.50;99.90
32614;DHT22;19031;51.400;6.770;2023-06-05T06:55:34;17.70;99.90
32614;DHT22;19031;51.400;6.770;2023-06-05T06:57:59;17.70;99.90
32614;DHT22;19031;51.400;6.770;2023-06-05T07:00:25;18.00;99.90
32614;DHT22;19031;51.400;6.770;2023-06-05T07:02:51;18.30;99.90
32614;DHT22;19031;51.400;6.770;2023-06-05T07:05:17;18.50;99.90
32614;DHT22;19031;51.400;6.770;2023-06-05T07:07:45;18.90;99.90
32614;DHT22;19031;51.400;6.770;2023-06-05T07:10:10;18.70;99.90
32614;DHT22;19031;51.400;6.770;2023-06-05T07:12:37;18.60;99.90
32614;DHT22;19031;51.400;6.770;2023-06-05T07:15:02;18.90;99.90
32614;DHT22;19031;51.400;6.770;2023-06-05T07:17:28;19.10;99.90
32614;DHT22;19031;51.400;6.770;2023-06-05T07:19:58;19.60;99.90
32614;DHT22;19031;51.400;6.770;2023-06-05T07:22:25;19.60;99.90
32614;DHT22;19031;51.400;6.770;2023-06-05T07:24:52;19.40;99.90
32614;DHT22;19031;51.400;6.770;2023-06-05T07:27:19;19.90;99.90
32614;DHT22;19031;51.400;6.770;2023-06-05T07:29:45;20.00;99.90
32614;DHT22;19031;51.400;6.770;2023-06-05T07:32:12;20.40;99.90
32614;DHT22;19031;51.400;6.770;2023-06-05T07:34:38;20.40;99.90
32614;DHT22;19031;51.400;6.770;2023-06-05T07:37:04;21.00;99.90
32614;DHT22;19031;51.400;6.770;2023-06-05T07:39:32;20.90;99.90
32614;DHT22;19031;51.400;6.770;2023-06-05T07:41:58;20.90;99.90
32614;DHT22;19031;51.400;6.770;2023-06-05T07:44:25;20.50;99.90
32614;DHT22;19031;51.400;6.770;2023-06-05T07:46:51;20.60;99.90
32614;DHT22;19031;51.400;6.770;2023-06-05T07:49:17;20.60;99.90
32614;DHT22;19031;51.400;6.770;2023-06-05T07:51:44;20.90;99.90
32614;DHT22;19031;51.400;6.770;2023-06-05T07:54:13;21.10;99.90
32614;DHT22;19031;51.400;6.770;2023-06-05T07:56:39;21.50;99.90
32614;DHT22;19031;51.400;6.770;2023-06-05T07:59:06;21.60;99.90
32614;DHT22;19031;51.400;6.770;2023-06-05T08:01:33;21.60;99.90
32614;DHT22;19031;51.400;6.770;2023-06-05T08:04:02;21.80;99.90
32614;DHT22;19031;51.400;6.770;2023-06-05T08:06:28;22.10;99.90
32614;DHT22;19031;51.400;6.770;2023-06-05T08:08:55;22.20;99.90
32614;DHT22;19031;51.400;6.770;2023-06-05T08:11:21;22.50;99.90
32614;DHT22;19031;51.400;6.770;2023-06-05T08:13:47;22.90;99.90
32614;DHT22;19031;51.400;6.770;2023-06-05T08:16:12;23.10;99.20
32614;DHT22;19031;51.400;6.770;2023-06-05T08:18:40;23.20;98.40
32614;DHT22;19031;51.400;6.770;2023-06-05T08:21:06;23.30;98.20
32614;DHT22;19031;51.400;6.770;2023-06-05T08:23:32;23.20;98.50
32614;DHT22;19031;51.400;6.770;2023-06-05T08:25:58;22.90;98.00
32614;DHT22;19031;51.400;6.770;2023-06-05T08:28:23;23.30;97.80
32614;DHT22;19031;51.400;6.770;2023-06-05T08:30:49;23.30;97.30
32614;DHT22;19031;51.400;6.770;2023-06-05T08:33:18;23.50;96.60
32614;DHT22;19031;51.400;6.770;2023-06-05T08:35:44;23.70;96.30
32614;DHT22;19031;51.400;6.770;2023-06-05T08:38:09;24.20;96.50
32614;DHT22;19031;51.400;6.770;2023-06-05T08:40:35;24.70;94.80
32614;DHT22;19031;51.400;6.770;2023-06-05T08:43:02;25.00;95.20
32614;DHT22;19031;51.400;6.770;2023-06-05T08:45:28;24.40;94.80
32614;DHT22;19031;51.400;6.770;2023-06-05T08:47:54;24.60;95.50
32614;DHT22;19031;51.400;6.770;2023-06-05T08:50:22;24.70;93.90
32614;DHT22;19031;51.400;6.770;2023-06-05T08:52:50;25.00;94.80
32614;DHT22;19031;51.400;6.770;2023-06-05T08:55:16;25.30;92.50
32614;DHT22;19031;51.400;6.770;2023-06-05T08:57:43;25.10;92.20
32614;DHT22;19031;51.400;6.770;2023-06-05T09:00:09;25.10;92.70
32614;DHT22;19031;51.400;6.770;2023-06-05T09:02:45;25.10;91.80
32614;DHT22;19031;51.400;6.770;2023-06-05T09:05:16;25.50;91.70
32614;DHT22;19031;51.400;6.770;2023-06-05T09:07:42;25.80;89.20
32614;DHT22;19031;51.400;6.770;2023-06-05T09:10:28;25.60;88.90
32614;DHT22;19031;51.400;6.770;2023-06-05T09:13:02;25.70;89.30
32614;DHT22;19031;51.400;6.770;2023-06-05T09:15:32;25.60;89.70
32614;DHT22;19031;51.400;6.770;2023-06-05T09:20:29;26.10;83.40
32614;DHT22;19031;51.400;6.770;2023-06-05T09:22:55;26.40;86.60
32614;DHT22;19031;51.400;6.770;2023-06-05T09:25:20;26.80;83.90
32614;DHT22;19031;51.400;6.770;2023-06-05T09:28:05;26.50;84.90
32614;DHT22;19031;51.400;6.770;2023-06-05T09:30:31;26.40;85.30
32614;DHT22;19031;51.400;6.770;2023-06-05T09:33:08;26.60;80.80
32614;DHT22;19031;51.400;6.770;2023-06-05T09:35:34;27.10;76.50
32614;DHT22;19031;51.400;6.770;2023-06-05T09:38:10;27.00;76.30
32614;DHT22;19031;51.400;6.770;2023-06-05T09:40:49;27.30;76.40
32614;DHT22;19031;51.400;6.770;2023-06-05T09:43:21;26.70;77.60
32614;DHT22;19031;51.400;6.770;2023-06-05T09:45:48;26.90;84.50
32614;DHT22;19031;51.400;6.770;2023-06-05T09:48:14;27.40;78.60
32614;DHT22;19031;51.400;6.770;2023-06-05T09:50:40;27.50;79.20
32614;DHT22;19031;51.400;6.770;2023-06-05T09:53:07;27.80;76.80
32614;DHT22;19031;51.400;6.770;2023-06-05T09:55:34;28.40;76.40
32614;DHT22;19031;51.400;6.770;2023-06-05T09:58:04;28.20;73.00
32614;DHT22;19031;51.400;6.770;2023-06-05T10:00:39;28.50;73.90
32614;DHT22;19031;51.400;6.770;2023-06-05T10:03:17;28.90;71.30
32614;DHT22;19031;51.400;6.770;2023-06-05T10:05:44;28.90;67.50
32614;DHT22;19031;51.400;6.770;2023-06-05T10:08:13;28.40;68.40
32614;DHT22;19031;51.400;6.770;2023-06-05T10:10:39;28.40;66.50
32614;DHT22;19031;51.400;6.770;2023-06-05T10:13:06;29.20;68.40
32614;DHT22;19031;51.400;6.770;2023-06-05T10:15:32;28.80;66.60
32614;DHT22;19031;51.400;6.770;2023-06-05T10:17:58;28.90;64.60
32614;DHT22;19031;51.400;6.770;2023-06-05T10:20:24;28.70;61.20
32614;DHT22;19031;51.400;6.770;2023-06-05T10:22:51;29.00;62.50
32614;DHT22;19031;51.400;6.770;2023-06-05T10:25:19;28.50;63.30
32614;DHT22;19031;51.400;6.770;2023-06-05T10:38:38;28.60;60.00
32614;DHT22;19031;51.400;6.770;2023-06-05T10:41:05;29.30;62.50
32614;DHT22;19031;51.400;6.770;2023-06-05T10:43:48;28.90;59.60
32614;DHT22;19031;51.400;6.770;2023-06-05T10:46:33;28.70;59.60
32614;DHT22;19031;51.400;6.770;2023-06-05T10:49:08;29.50;60.80
32614;DHT22;19031;51.400;6.770;2023-06-05T10:51:40;29.70;58.60
32614;DHT22;19031;51.400;6.770;2023-06-05T10:59:17;30.30;56.10
32614;DHT22;19031;51.400;6.770;2023-06-05T11:07:27;29.40;53.70
32614;DHT22;19031;51.400;6.770;2023-06-05T11:10:19;29.50;50.00
32614;DHT22;19031;51.400;6.770;2023-06-05T11:12:53;29.80;50.30
32614;DHT22;19031;51.400;6.770;2023-06-05T11:17:53;30.80;48.90
32614;DHT22;19031;51.400;6.770;2023-06-05T11:20:48;30.20;49.80
32614;DHT22;19031;51.400;6.770;2023-06-05T11:23:07;30.40;48.40
32614;DHT22;19031;51.400;6.770;2023-06-05T11:25:32;30.70;49.00
32614;DHT22;19031;51.400;6.770;2023-06-05T11:28:05;30.70;44.80
32614;DHT22;19031;51.400;6.770;2023-06-05T11:30:42;31.10;45.70
32614;DHT22;19031;51.400;6.770;2023-06-05T11:33:11;31.20;45.30
32614;DHT22;19031;51.400;6.770;2023-06-05T11:35:41;31.80;46.50
32614;DHT22;19031;51.400;6.770;2023-06-05T11:40:32;32.10;44.20
32614;DHT22;19031;51.400;6.770;2023-06-05T11:43:12;32.50;47.40
32614;DHT22;19031;51.400;6.770;2023-06-05T11:45:39;32.50;45.60
32614;DHT22;19031;51.400;6.770;2023-06-05T11:50:33;32.30;44.40
32614;DHT22;19031;51.400;6.770;2023-06-05T11:53:10;32.20;43.10
32614;DHT22;19031;51.400;6.770;2023-06-05T11:55:37;32.40;44.50
32614;DHT22;19031;51.400;6.770;2023-06-05T12:00:48;32.30;40.80
32614;DHT22;19031;51.400;6.770;2023-06-05T12:03:18;32.20;40.60
32614;DHT22;19031;51.400;6.770;2023-06-05T12:05:44;32.30;40.80
32614;DHT22;19031;51.400;6.770;2023-06-05T12:08:26;32.00;40.40
32614;DHT22;19031;51.400;6.770;2023-06-05T12:10:54;31.80;40.80
32614;DHT22;19031;51.400;6.770;2023-06-05T12:13:33;32.20;42.50
32614;DHT22;19031;51.400;6.770;2023-06-05T12:16:08;31.70;40.70
32614;DHT22;19031;51.400;6.770;2023-06-05T12:18:34;32.10;41.30
32614;DHT22;19031;51.400;6.770;2023-06-05T12:21:00;31.70;40.10
32614;DHT22;19031;51.400;6.770;2023-06-05T12:23:28;31.40;40.60
32614;DHT22;19031;51.400;6.770;2023-06-05T12:26:00;31.70;40.60
32614;DHT22;19031;51.400;6.770;2023-06-05T12:28:27;31.60;39.30
32614;DHT22;19031;51.400;6.770;2023-06-05T12:30:53;32.10;43.30
32614;DHT22;19031;51.400;6.770;2023-06-05T12:33:19;32.10;38.90
32614;DHT22;19031;51.400;6.770;2023-06-05T12:35:46;32.50;41.70
32614;DHT22;19031;51.400;6.770;2023-06-05T12:38:12;32.40;38.40
32614;DHT22;19031;51.400;6.770;2023-06-05T12:40:37;32.10;41.10
32614;DHT22;19031;51.400;6.770;2023-06-05T12:43:03;31.90;39.10
32614;DHT22;19031;51.400;6.770;2023-06-05T12:45:28;32.40;40.00
32614;DHT22;19031;51.400;6.770;2023-06-05T12:47:55;32.40;41.30
32614;DHT22;19031;51.400;6.770;2023-06-05T12:50:21;32.70;39.10
32614;DHT22;19031;51.400;6.770;2023-06-05T12:52:47;33.00;39.30
32614;DHT22;19031;51.400;6.770;2023-06-05T12:55:12;32.80;39.00
32614;DHT22;19031;51.400;6.770;2023-06-05T12:57:38;33.10;39.60
32614;DHT22;19031;51.400;6.770;2023-06-05T13:00:05;33.10;37.90
32614;DHT22;19031;51.400;6.770;2023-06-05T13:02:37;33.10;38.50
32614;DHT22;19031;51.400;6.770;2023-06-05T13:05:03;33.60;39.80
32614;DHT22;19031;51.400;6.770;2023-06-05T13:07:30;33.20;38.10
32614;DHT22;19031;51.400;6.770;2023-06-05T13:09:56;33.30;39.00
32614;DHT22;19031;51.400;6.770;2023-06-05T13:12:22;33.20;37.40
32614;DHT22;19031;51.400;6.770;2023-06-05T13:14:48;33.10;36.80
32614;DHT22;19031;51.400;6.770;2023-06-05T13:17:14;32.70;38.90
32614;DHT22;19031;51.400;6.770;2023-06-05T13:19:39;32.40;39.60
32614;DHT22;19031;51.400;6.770;2023-06-05T13:22:05;33.10;39.50
32614;DHT22;19031;51.400;6.770;2023-06-05T13:24:31;33.30;39.10
32614;DHT22;19031;51.400;6.770;2023-06-05T13:26:58;33.40;38.00
32614;DHT22;19031;51.400;6.770;2023-06-05T13:29:23;32.90;37.50
32614;DHT22;19031;51.400;6.770;2023-06-05T13:31:49;33.20;39.30
32614;DHT22;19031;51.400;6.770;2023-06-05T13:34:15;33.50;37.60
32614;DHT22;19031;51.400;6.770;2023-06-05T13:36:40;33.60;38.80
32614;DHT22;19031;51.400;6.770;2023-06-05T13:39:06;33.40;38.60
32614;DHT22;19031;51.400;6.770;2023-06-05T13:41:31;33.50;36.40
32614;DHT22;19031;51.400;6.770;2023-06-05T13:43:57;33.70;38.40
32614;DHT22;19031;51.400;6.770;2023-06-05T13:46:23;33.40;39.70
32614;DHT22;19031;51.400;6.770;2023-06-05T13:48:49;33.60;39.10
32614;DHT22;19031;51.400;6.770;2023-06-05T13:51:15;34.10;41.20
32614;DHT22;19031;51.400;6.770;2023-06-05T13:53:41;34.10;37.10
32614;DHT22;19031;51.400;6.770;2023-06-05T13:56:06;33.70;39.70
32614;DHT22;19031;51.400;6.770;2023-06-05T13:58:32;33.50;41.10
32614;DHT22;19031;51.400;6.770;2023-06-05T14:00:59;33.50;39.20
32614;DHT22;19031;51.400;6.770;2023-06-05T14:03:25;33.30;37.80
32614;DHT22;19031;51.400;6.770;2023-06-05T14:05:51;33.10;38.90
32614;DHT22;19031;51.400;6.770;2023-06-05T14:08:16;32.80;39.50
32614;DHT22;19031;51.400;6.770;2023-06-05T14:10:42;32.30;38.60
32614;DHT22;19031;51.400;6.770;2023-06-05T14:13:08;31.90;39.50
32614;DHT22;19031;51.400;6.770;2023-06-05T14:15:34;31.80;40.80
32614;DHT22;19031;51.400;6.770;2023-06-05T14:18:02;32.30;40.90
32614;DHT22;19031;51.400;6.770;2023-06-05T14:20:28;32.70;40.30
32614;DHT22;19031;51.400;6.770;2023-06-05T14:22:57;33.00;41.50
32614;DHT22;19031;51.400;6.770;2023-06-05T14:25:23;33.20;42.50
32614;DHT22;19031;51.400;6.770;2023-06-05T14:27:54;33.20;40.70
32614;DHT22;19031;51.400;6.770;2023-06-05T14:30:23;32.90;41.70
32614;DHT22;19031;51.400;6.770;2023-06-05T14:32:49;33.00;41.30
32614;DHT22;19031;51.400;6.770;2023-06-05T14:35:15;32.90;40.30
32614;DHT22;19031;51.400;6.770;2023-06-05T14:37:42;33.30;39.40
32614;DHT22;19031;51.400;6.770;2023-06-05T14:40:08;33.30;40.30
32614;DHT22;19031;51.400;6.770;2023-06-05T14:42:34;32.40;39.40
32614;DHT22;19031;51.400;6.770;2023-06-05T14:45:00;32.80;44.00
32614;DHT22;19031;51.400;6.770;2023-06-05T14:47:25;33.40;40.20
32614;DHT22;19031;51.400;6.770;2023-06-05T14:49:51;33.00;39.80
32614;DHT22;19031;51.400;6.770;2023-06-05T14:52:16;32.00;38.80
32614;DHT22;19031;51.400;6.770;2023-06-05T14:54:42;32.20;40.90
32614;DHT22;19031;51.400;6.770;2023-06-05T14:57:08;32.40;39.80
32614;DHT22;19031;51.400;6.770;2023-06-05T14:59:34;32.90;41.40
32614;DHT22;19031;51.400;6.770;2023-06-05T15:01:59;33.10;40.80
32614;DHT22;19031;51.400;6.770;2023-06-05T15:04:25;32.60;40.30
32614;DHT22;19031;51.400;6.770;2023-06-05T15:06:51;32.60;42.20
32614;DHT22;19031;51.400;6.770;2023-06-05T15:09:21;31.80;39.80
32614;DHT22;19031;51.400;6.770;2023-06-05T15:11:48;31.50;41.10
32614;DHT22;19031;51.400;6.770;2023-06-05T15:14:13;31.40;41.50
32614;DHT22;19031;51.400;6.770;2023-06-05T15:16:39;31.50;40.80
32614;DHT22;19031;51.400;6.770;2023-06-05T15:19:05;31.90;41.20
32614;DHT22;19031;51.400;6.770;2023-06-05T15:21:31;31.40;40.60
32614;DHT22;19031;51.400;6.770;2023-06-05T15:23:56;31.40;42.20
32614;DHT22;19031;51.400;6.770;2023-06-05T15:26:22;31.70;40.80
32614;DHT22;19031;51.400;6.770;2023-06-05T15:28:48;32.00;42.10
32614;DHT22;19031;51.400;6.770;2023-06-05T15:31:13;32.00;41.50
32614;DHT22;19031;51.400;6.770;2023-06-05T15:33:39;32.20;41.60
32614;DHT22;19031;51.400;6.770;2023-06-05T15:36:05;31.80;39.00
32614;DHT22;19031;51.400;6.770;2023-06-05T15:38:31;31.10;39.60
32614;DHT22;19031;51.400;6.770;2023-06-05T15:40:56;31.10;42.10
32614;DHT22;19031;51.400;6.770;2023-06-05T15:43:22;31.20;39.30
32614;DHT22;19031;51.400;6.770;2023-06-05T15:45:48;31.10;40.10
32614;DHT22;19031;51.400;6.770;2023-06-05T15:48:14;31.20;39.90
32614;DHT22;19031;51.400;6.770;2023-06-05T15:50:39;31.60;41.40
32614;DHT22;19031;51.400;6.770;2023-06-05T15:53:05;31.80;43.10
32614;DHT22;19031;51.400;6.770;2023-06-05T15:55:32;31.50;41.30
32614;DHT22;19031;51.400;6.770;2023-06-05T15:58:02;31.50;41.30
32614;DHT22;19031;51.400;6.770;2023-06-05T16:00:28;31.40;40.10
32614;DHT22;19031;51.400;6.770;2023-06-05T16:02:53;30.60;39.70
32614;DHT22;19031;51.400;6.770;2023-06-05T16:05:19;30.00;42.20
32614;DHT22;19031;51.400;6.770;2023-06-05T16:07:45;30.00;40.40